createdAt,value
2022-09-21T00:00:55.474Z,23.87
2022-09-21T00:01:55.441Z,23.77
2022-09-21T00:02:55.396Z,23.79
2022-09-21T00:03:55.392Z,23.80
2022-09-21T00:04:55.374Z,23.82
2022-09-21T00:05:55.364Z,23.77
2022-09-21T00:06:55.352Z,23.86
2022-09-21T00:07:55.342Z,23.80
2022-09-21T00:08:55.331Z,23.72
2022-09-21T00:09:55.335Z,23.75
2022-09-21T00:10:55.309Z,23.82
2022-09-21T00:11:58.283Z,23.85
2022-09-21T00:12:55.286Z,23.77
2022-09-21T00:13:55.510Z,23.71
2022-09-21T00:14:55.264Z,23.80
2022-09-21T00:15:55.303Z,23.77
2022-09-21T00:16:55.279Z,23.76
2022-09-21T00:17:55.230Z,23.76
2022-09-21T00:18:55.220Z,23.82
2022-09-21T00:19:55.209Z,23.72
2022-09-21T00:20:55.197Z,23.82
2022-09-21T00:21:55.192Z,23.75
2022-09-21T00:22:55.175Z,23.79
2022-09-21T00:23:55.164Z,23.79
2022-09-21T00:24:55.152Z,23.75
2022-09-21T00:25:55.141Z,23.71
2022-09-21T00:26:55.130Z,23.83
2022-09-21T00:27:55.143Z,23.77
2022-09-21T00:28:55.153Z,23.70
2022-09-21T00:29:55.098Z,23.70
2022-09-21T00:30:55.086Z,23.80
2022-09-21T00:31:55.165Z,23.77
2022-09-21T00:32:55.066Z,23.71
2022-09-21T00:33:55.079Z,23.79
2022-09-21T00:34:55.042Z,23.77
2022-09-21T00:35:55.031Z,23.68
2022-09-21T00:36:55.024Z,23.79
2022-09-21T00:37:55.009Z,23.76
2022-09-21T00:38:54.999Z,23.75
2022-09-21T00:39:54.996Z,23.75
2022-09-21T00:40:54.977Z,23.72
2022-09-21T00:41:54.964Z,23.68
2022-09-21T00:42:54.954Z,23.67
2022-09-21T00:43:54.981Z,23.76
2022-09-21T00:44:54.932Z,23.72
2022-09-21T00:45:55.001Z,23.75
2022-09-21T00:46:54.913Z,23.75
2022-09-21T00:47:54.917Z,23.70
2022-09-21T00:48:54.888Z,23.68
2022-09-21T00:49:54.878Z,23.70
2022-09-21T00:50:54.865Z,23.70
2022-09-21T00:51:54.883Z,23.67
2022-09-21T00:52:54.843Z,23.76
2022-09-21T00:53:54.833Z,23.72
2022-09-21T00:54:54.822Z,23.68
2022-09-21T00:55:54.811Z,23.71
2022-09-21T00:56:54.799Z,23.82
2022-09-21T00:57:54.794Z,23.72
2022-09-21T00:58:54.904Z,23.76
2022-09-21T00:59:54.766Z,23.80
2022-09-21T01:00:54.779Z,23.67
2022-09-21T01:01:54.777Z,23.61
2022-09-21T01:02:54.733Z,23.70
2022-09-21T01:03:54.806Z,23.62
2022-09-21T01:04:54.710Z,23.60
2022-09-21T01:05:54.703Z,23.67
2022-09-21T01:06:54.689Z,23.70
2022-09-21T01:07:54.677Z,23.67
2022-09-21T01:08:54.666Z,23.76
2022-09-21T01:09:54.676Z,23.67
2022-09-21T01:10:54.644Z,23.76
2022-09-21T01:11:54.633Z,23.57
2022-09-21T01:12:54.621Z,23.68
2022-09-21T01:13:54.621Z,23.71
2022-09-21T01:14:54.600Z,23.77
2022-09-21T01:15:54.596Z,23.67
2022-09-21T01:16:54.580Z,23.67
2022-09-21T01:17:54.568Z,23.70
2022-09-21T01:18:54.555Z,23.72
2022-09-21T01:19:54.563Z,23.77
2022-09-21T01:20:54.535Z,23.67
2022-09-21T01:21:54.539Z,23.67
2022-09-21T01:22:54.512Z,23.70
2022-09-21T01:23:54.500Z,23.71
2022-09-21T01:24:54.489Z,23.75
2022-09-21T01:25:54.478Z,23.70
2022-09-21T01:26:54.466Z,23.68
2022-09-21T01:27:54.485Z,23.62
2022-09-21T01:28:54.506Z,23.67
2022-09-21T01:29:54.433Z,23.64
2022-09-21T01:30:54.424Z,23.64
2022-09-21T01:31:54.478Z,23.65
2022-09-21T01:32:54.402Z,23.76
2022-09-21T01:33:54.412Z,23.65
2022-09-21T01:34:54.380Z,23.64
2022-09-21T01:35:54.385Z,23.67
2022-09-21T01:36:54.356Z,23.67
2022-09-21T01:37:54.347Z,23.65
2022-09-21T01:38:54.334Z,23.64
2022-09-21T01:39:54.330Z,23.64
2022-09-21T01:40:54.312Z,23.61
2022-09-21T01:41:54.301Z,23.64
2022-09-21T01:42:54.292Z,23.68
2022-09-21T01:43:54.319Z,23.60
2022-09-21T01:44:54.267Z,23.68
2022-09-21T01:45:54.309Z,23.65
2022-09-21T01:46:54.250Z,23.67
2022-09-21T01:47:54.234Z,23.71
2022-09-21T01:48:54.224Z,23.61
2022-09-21T01:49:54.212Z,23.60
2022-09-21T01:50:54.201Z,23.67
2022-09-21T01:51:54.218Z,23.70
2022-09-21T01:52:54.179Z,23.61
2022-09-21T01:53:54.168Z,23.65
2022-09-21T01:54:54.158Z,23.65
2022-09-21T01:55:54.147Z,23.57
2022-09-21T01:56:54.136Z,23.64
2022-09-21T01:57:54.142Z,23.67
2022-09-21T01:58:54.113Z,23.62
2022-09-21T01:59:54.102Z,23.62
2022-09-21T02:00:54.140Z,23.60
2022-09-21T02:01:54.120Z,23.60
2022-09-21T02:02:54.068Z,23.60
2022-09-21T02:03:54.087Z,23.61
2022-09-21T02:04:54.047Z,23.61
2022-09-21T02:05:54.035Z,23.58
2022-09-21T02:06:54.024Z,23.60
2022-09-21T02:07:54.040Z,23.61
2022-09-21T02:08:54.002Z,23.58
2022-09-21T02:09:53.997Z,23.64
2022-09-21T02:10:53.981Z,23.64
2022-09-21T02:11:53.970Z,23.61
2022-09-21T02:12:53.958Z,23.77
2022-09-21T02:13:53.948Z,23.60
2022-09-21T02:14:53.936Z,23.64
2022-09-21T02:15:53.974Z,23.61
2022-09-21T02:16:53.915Z,23.58
2022-09-21T02:17:53.903Z,23.60
2022-09-21T02:18:53.892Z,23.62
2022-09-21T02:19:53.881Z,23.67
2022-09-21T02:20:53.871Z,23.60
2022-09-21T02:21:53.865Z,23.58
2022-09-21T02:22:53.847Z,23.62
2022-09-21T02:23:53.855Z,23.62
2022-09-21T02:24:53.826Z,23.62
2022-09-21T02:25:53.814Z,23.61
2022-09-21T02:26:53.804Z,23.58
2022-09-21T02:27:53.798Z,23.53
2022-09-21T02:28:53.781Z,23.61
2022-09-21T02:29:53.770Z,23.65
2022-09-21T02:30:53.759Z,23.67
2022-09-21T02:31:53.752Z,23.67
2022-09-21T02:32:53.737Z,23.52
2022-09-21T02:33:53.732Z,23.52
2022-09-21T02:34:53.715Z,23.61
2022-09-21T02:35:53.703Z,23.61
2022-09-21T02:36:53.692Z,23.53
2022-09-21T02:37:53.683Z,23.60
2022-09-21T02:38:53.670Z,23.53
2022-09-21T02:39:53.764Z,23.55
2022-09-21T02:40:53.648Z,23.64
2022-09-21T02:41:53.638Z,23.58
2022-09-21T02:42:53.627Z,23.67
2022-09-21T02:43:53.616Z,23.57
2022-09-21T02:44:53.603Z,23.68
2022-09-21T02:45:53.599Z,23.58
2022-09-21T02:46:53.739Z,23.61
2022-09-21T02:47:53.571Z,23.60
2022-09-21T02:48:53.559Z,23.60
2022-09-21T02:49:53.552Z,23.61
2022-09-21T02:50:53.536Z,23.61
2022-09-21T02:51:53.547Z,23.60
2022-09-21T02:52:53.515Z,23.58
2022-09-21T02:53:53.505Z,23.53
2022-09-21T02:54:53.493Z,23.65
2022-09-21T02:55:56.499Z,23.64
2022-09-21T02:56:53.471Z,23.62
2022-09-21T02:57:53.465Z,23.61
2022-09-21T02:58:53.448Z,23.58
2022-09-21T02:59:53.438Z,23.53
2022-09-21T03:00:53.447Z,23.55
2022-09-21T03:01:53.456Z,23.53
2022-09-21T03:02:53.405Z,23.57
2022-09-21T03:03:53.409Z,23.60
2022-09-21T03:04:53.382Z,23.62
2022-09-21T03:05:53.371Z,23.58
2022-09-21T03:06:53.361Z,23.53
2022-09-21T03:07:53.349Z,23.58
2022-09-21T03:08:53.338Z,23.61
2022-09-21T03:09:53.334Z,23.61
2022-09-21T03:10:53.315Z,23.58
2022-09-21T03:11:53.324Z,23.52
2022-09-21T03:12:53.295Z,23.57
2022-09-21T03:13:53.283Z,23.64
2022-09-21T03:14:53.271Z,23.60
2022-09-21T03:15:53.331Z,23.64
2022-09-21T03:16:53.249Z,23.58
2022-09-21T03:17:53.239Z,23.61
2022-09-21T03:18:53.227Z,23.53
2022-09-21T03:19:53.216Z,23.52
2022-09-21T03:20:53.205Z,23.55
2022-09-21T03:21:53.202Z,23.57
2022-09-21T03:22:53.183Z,23.57
2022-09-21T03:23:53.174Z,23.58
2022-09-21T03:24:53.163Z,23.57
2022-09-21T03:25:53.151Z,23.58
2022-09-21T03:26:53.140Z,23.46
2022-09-21T03:27:53.167Z,23.53
2022-09-21T03:28:53.116Z,23.60
2022-09-21T03:29:53.105Z,23.52
2022-09-21T03:30:53.143Z,23.55
2022-09-21T03:31:53.085Z,23.57
2022-09-21T03:32:53.072Z,23.60
2022-09-21T03:33:53.067Z,23.58
2022-09-21T03:34:53.050Z,23.60
2022-09-21T03:35:53.039Z,23.53
2022-09-21T03:36:53.027Z,23.55
2022-09-21T03:37:53.017Z,23.57
2022-09-21T03:38:53.008Z,23.52
2022-09-21T03:39:53.010Z,23.52
2022-09-21T03:40:52.984Z,23.57
2022-09-21T03:41:52.973Z,23.50
2022-09-21T03:42:52.963Z,23.50
2022-09-21T03:43:52.972Z,23.53
2022-09-21T03:44:52.940Z,23.57
2022-09-21T03:45:53.425Z,23.46
2022-09-21T03:46:52.917Z,23.55
2022-09-21T03:47:52.908Z,23.58
2022-09-21T03:48:52.894Z,23.52
2022-09-21T03:49:52.885Z,23.62
2022-09-21T03:50:52.873Z,23.55
2022-09-21T03:51:52.894Z,23.50
2022-09-21T03:52:52.852Z,23.49
2022-09-21T03:53:52.841Z,23.58
2022-09-21T03:54:52.829Z,23.53
2022-09-21T03:55:52.818Z,23.50
2022-09-21T03:56:52.819Z,23.57
2022-09-21T03:57:52.803Z,23.55
2022-09-21T03:58:52.785Z,23.53
2022-09-21T03:59:52.793Z,23.58
2022-09-21T04:00:52.764Z,23.39
2022-09-21T04:01:52.782Z,23.42
2022-09-21T04:02:52.797Z,23.58
2022-09-21T04:03:52.736Z,23.50
2022-09-21T04:04:52.719Z,23.53
2022-09-21T04:05:52.707Z,23.50
2022-09-21T04:06:52.696Z,23.57
2022-09-21T04:07:52.686Z,23.40
2022-09-21T04:08:52.674Z,23.50
2022-09-21T04:09:52.669Z,23.50
2022-09-21T04:10:52.652Z,23.52
2022-09-21T04:11:52.642Z,23.52
2022-09-21T04:12:52.630Z,23.46
2022-09-21T04:13:52.618Z,23.35
2022-09-21T04:14:52.610Z,23.52
2022-09-21T04:15:52.798Z,23.55
2022-09-21T04:16:52.586Z,23.50
2022-09-21T04:17:52.574Z,23.39
2022-09-21T04:18:52.565Z,23.42
2022-09-21T04:19:52.552Z,23.55
2022-09-21T04:20:52.541Z,23.47
2022-09-21T04:21:52.537Z,23.46
2022-09-21T04:22:52.522Z,23.53
2022-09-21T04:23:52.508Z,23.49
2022-09-21T04:24:52.498Z,23.42
2022-09-21T04:25:52.487Z,23.47
2022-09-21T04:26:52.475Z,23.42
2022-09-21T04:27:52.495Z,23.52
2022-09-21T04:28:52.453Z,23.53
2022-09-21T04:29:52.442Z,23.53
2022-09-21T04:30:52.480Z,23.45
2022-09-21T04:31:52.562Z,23.49
2022-09-21T04:32:52.411Z,23.50
2022-09-21T04:33:52.405Z,23.42
2022-09-21T04:34:52.388Z,23.52
2022-09-21T04:35:52.376Z,23.52
2022-09-21T04:36:52.364Z,23.49
2022-09-21T04:37:52.353Z,23.50
2022-09-21T04:38:52.342Z,23.46
2022-09-21T04:39:52.337Z,23.50
2022-09-21T04:40:52.328Z,23.47
2022-09-21T04:41:52.311Z,23.47
2022-09-21T04:42:52.297Z,23.52
2022-09-21T04:43:52.286Z,23.47
2022-09-21T04:44:52.276Z,23.50
2022-09-21T04:45:52.347Z,23.58
2022-09-21T04:46:52.253Z,23.53
2022-09-21T04:47:52.263Z,23.42
2022-09-21T04:48:52.232Z,23.49
2022-09-21T04:49:52.221Z,23.39
2022-09-21T04:50:52.211Z,23.43
2022-09-21T04:51:52.228Z,23.55
2022-09-21T04:52:52.187Z,23.49
2022-09-21T04:53:52.177Z,23.47
2022-09-21T04:54:52.165Z,23.52
2022-09-21T04:55:52.154Z,23.50
2022-09-21T04:56:52.143Z,23.50
2022-09-21T04:57:52.138Z,23.55
2022-09-21T04:58:52.123Z,23.49
2022-09-21T04:59:52.110Z,23.47
2022-09-21T05:00:52.100Z,23.58
2022-09-21T05:01:52.122Z,23.53
2022-09-21T05:02:52.076Z,23.53
2022-09-21T05:03:52.226Z,23.53
2022-09-21T05:04:52.054Z,23.53
2022-09-21T05:05:52.043Z,23.50
2022-09-21T05:06:52.031Z,23.53
2022-09-21T05:07:52.022Z,23.53
2022-09-21T05:08:52.010Z,23.45
2022-09-21T05:09:52.006Z,23.57
2022-09-21T05:10:51.996Z,23.52
2022-09-21T05:11:51.978Z,23.47
2022-09-21T05:12:51.966Z,23.52
2022-09-21T05:13:51.955Z,23.57
2022-09-21T05:14:51.943Z,23.57
2022-09-21T05:15:51.997Z,23.55
2022-09-21T05:16:51.920Z,23.46
2022-09-21T05:17:51.909Z,23.55
2022-09-21T05:18:51.899Z,23.53
2022-09-21T05:19:51.909Z,23.58
2022-09-21T05:20:51.877Z,23.53
2022-09-21T05:21:51.872Z,23.55
2022-09-21T05:22:51.855Z,23.58
2022-09-21T05:23:51.844Z,23.57
2022-09-21T05:24:51.832Z,23.49
2022-09-21T05:25:51.821Z,23.52
2022-09-21T05:26:51.811Z,23.45
2022-09-21T05:27:51.805Z,23.60
2022-09-21T05:28:51.789Z,23.53
2022-09-21T05:29:51.777Z,23.57
2022-09-21T05:31:14.041Z,23.53
2022-09-21T05:31:52.791Z,23.46
2022-09-21T05:32:51.744Z,23.61
2022-09-21T05:33:51.739Z,23.55
2022-09-21T05:34:51.722Z,23.52
2022-09-21T05:35:51.816Z,23.55
2022-09-21T05:36:51.700Z,23.57
2022-09-21T05:37:51.688Z,23.45
2022-09-21T05:38:51.678Z,23.58
2022-09-21T05:39:51.698Z,23.61
2022-09-21T05:40:51.657Z,23.57
2022-09-21T05:41:51.644Z,23.62
2022-09-21T05:42:51.636Z,23.57
2022-09-21T05:43:51.622Z,23.52
2022-09-21T05:44:51.611Z,23.45
2022-09-21T05:45:51.663Z,23.62
2022-09-21T05:46:55.935Z,23.57
2022-09-21T05:47:51.577Z,23.53
2022-09-21T05:48:51.568Z,23.58
2022-09-21T05:49:51.555Z,23.52
2022-09-21T05:50:51.546Z,23.62
2022-09-21T05:51:51.689Z,23.58
2022-09-21T05:52:51.523Z,23.57
2022-09-21T05:53:51.511Z,23.60
2022-09-21T05:54:51.501Z,23.53
2022-09-21T05:55:51.489Z,23.57
2022-09-21T05:56:51.478Z,23.61
2022-09-21T05:57:51.490Z,23.55
2022-09-21T05:58:51.457Z,23.57
2022-09-21T05:59:51.445Z,23.57
2022-09-21T06:00:51.435Z,23.53
2022-09-21T06:01:51.423Z,23.57
2022-09-21T06:02:51.413Z,23.60
2022-09-21T06:03:51.409Z,23.57
2022-09-21T06:04:52.391Z,23.58
2022-09-21T06:05:51.379Z,23.62
2022-09-21T06:06:51.370Z,23.57
2022-09-21T06:07:51.377Z,23.62
2022-09-21T06:08:51.346Z,23.60
2022-09-21T06:09:51.340Z,23.57
2022-09-21T06:10:51.325Z,23.53
2022-09-21T06:11:51.312Z,23.53
2022-09-21T06:12:51.301Z,23.53
2022-09-21T06:13:51.290Z,23.61
2022-09-21T06:14:51.280Z,23.61
2022-09-21T06:15:51.296Z,23.65
2022-09-21T06:16:51.297Z,23.65
2022-09-21T06:17:51.246Z,23.65
2022-09-21T06:18:51.235Z,23.64
2022-09-21T06:19:51.225Z,23.64
2022-09-21T06:20:51.212Z,23.68
2022-09-21T06:21:51.206Z,23.64
2022-09-21T06:22:51.193Z,23.67
2022-09-21T06:23:51.225Z,23.68
2022-09-21T06:24:51.167Z,23.71
2022-09-21T06:25:54.697Z,23.68
2022-09-21T06:26:52.151Z,23.67
2022-09-21T06:27:51.136Z,23.67
2022-09-21T06:28:51.123Z,23.68
2022-09-21T06:29:51.112Z,23.68
2022-09-21T06:30:51.156Z,23.67
2022-09-21T06:31:51.093Z,23.64
2022-09-21T06:32:51.085Z,23.76
2022-09-21T06:33:51.074Z,23.75
2022-09-21T06:34:51.068Z,23.71
2022-09-21T06:35:51.047Z,23.67
2022-09-21T06:36:51.036Z,23.72
2022-09-21T06:37:51.024Z,23.80
2022-09-21T06:38:51.036Z,23.62
2022-09-21T06:39:51.030Z,23.71
2022-09-21T06:40:50.995Z,23.72
2022-09-21T06:41:50.980Z,23.70
2022-09-21T06:42:50.969Z,23.68
2022-09-21T06:43:50.958Z,23.77
2022-09-21T06:44:50.953Z,23.72
2022-09-21T06:45:50.963Z,23.70
2022-09-21T06:46:50.925Z,23.82
2022-09-21T06:47:50.913Z,23.77
2022-09-21T06:48:50.909Z,23.76
2022-09-21T06:49:50.903Z,23.83
2022-09-21T06:50:50.891Z,23.72
2022-09-21T06:51:50.888Z,23.75
2022-09-21T06:52:50.858Z,23.77
2022-09-21T06:53:50.848Z,23.77
2022-09-21T06:54:50.836Z,23.77
2022-09-21T06:55:50.857Z,23.85
2022-09-21T06:56:50.822Z,23.80
2022-09-21T06:57:50.802Z,23.71
2022-09-21T06:58:50.793Z,23.87
2022-09-21T06:59:50.781Z,23.79
2022-09-21T07:00:50.901Z,23.86
2022-09-21T07:01:50.869Z,23.82
2022-09-21T07:02:50.769Z,23.80
2022-09-21T07:03:50.737Z,23.83
2022-09-21T07:04:50.727Z,23.85
2022-09-21T07:05:50.716Z,23.83
2022-09-21T07:06:50.704Z,23.89
2022-09-21T07:07:53.703Z,23.89
2022-09-21T07:10:08.048Z,23.94
2022-09-21T07:10:51.659Z,23.83
2022-09-21T07:11:50.672Z,23.85
2022-09-21T07:12:50.638Z,23.87
2022-09-21T07:13:50.626Z,23.90
2022-09-21T07:14:50.636Z,23.90
2022-09-21T07:15:53.330Z,23.89
2022-09-21T07:16:50.592Z,23.97
2022-09-21T07:17:52.220Z,23.86
2022-09-21T07:18:50.571Z,23.90
2022-09-21T07:19:50.559Z,23.98
2022-09-21T07:20:50.580Z,23.95
2022-09-21T07:21:50.538Z,24.01
2022-09-21T07:22:50.527Z,24.01
2022-09-21T07:23:50.515Z,24.01
2022-09-21T07:24:50.504Z,24.00
2022-09-21T07:25:50.493Z,24.07
2022-09-21T07:26:50.498Z,23.98
2022-09-21T07:27:50.490Z,24.04
2022-09-21T07:28:50.459Z,24.01
2022-09-21T07:29:50.490Z,24.02
2022-09-21T07:30:50.445Z,23.98
2022-09-21T07:31:50.504Z,24.10
2022-09-21T07:32:50.423Z,24.02
2022-09-21T07:33:50.404Z,24.14
2022-09-21T07:34:50.392Z,24.13
2022-09-21T07:35:50.383Z,24.16
2022-09-21T07:36:50.372Z,24.17
2022-09-21T07:37:50.360Z,24.17
2022-09-21T07:38:50.356Z,24.12
2022-09-21T07:39:50.338Z,24.17
2022-09-21T07:40:50.399Z,24.12
2022-09-21T07:41:50.315Z,24.14
2022-09-21T07:42:50.306Z,24.13
2022-09-21T07:43:50.313Z,24.23
2022-09-21T07:44:51.265Z,24.16
2022-09-21T07:45:50.324Z,24.23
2022-09-21T07:46:50.262Z,24.24
2022-09-21T07:47:50.251Z,24.31
2022-09-21T07:48:50.241Z,24.23
2022-09-21T07:49:50.228Z,24.29
2022-09-21T07:50:50.223Z,24.27
2022-09-21T07:51:50.206Z,24.17
2022-09-21T07:52:50.195Z,24.31
2022-09-21T07:53:50.184Z,24.32
2022-09-21T07:54:50.173Z,24.39
2022-09-21T07:55:50.161Z,24.29
2022-09-21T07:56:50.155Z,24.37
2022-09-21T07:57:50.140Z,24.31
2022-09-21T07:58:50.131Z,24.34
2022-09-21T07:59:50.134Z,24.34
2022-09-21T08:00:50.178Z,24.38
2022-09-21T08:01:50.194Z,24.39
2022-09-21T08:02:50.136Z,24.39
2022-09-21T08:03:50.072Z,24.41
2022-09-21T08:04:50.060Z,24.37
2022-09-21T08:05:50.049Z,24.44
2022-09-21T08:06:50.038Z,24.39
2022-09-21T08:07:50.034Z,24.45
2022-09-21T08:08:52.641Z,24.50
2022-09-21T08:09:51.005Z,24.45
2022-09-21T08:10:49.994Z,24.47
2022-09-21T08:11:49.984Z,24.47
2022-09-21T08:12:49.974Z,24.42
2022-09-21T08:13:49.960Z,24.53
2022-09-21T08:14:49.955Z,24.50
2022-09-21T08:15:50.515Z,24.54
2022-09-21T08:16:49.992Z,24.47
2022-09-21T08:17:49.917Z,24.53
2022-09-21T08:18:49.906Z,24.60
2022-09-21T08:19:49.895Z,24.59
2022-09-21T08:20:49.889Z,24.53
2022-09-21T08:21:53.633Z,24.54
2022-09-21T08:22:50.862Z,24.54
2022-09-21T08:23:49.852Z,24.59
2022-09-21T08:24:49.839Z,24.61
2022-09-21T08:25:49.827Z,24.60
2022-09-21T08:26:49.825Z,24.61
2022-09-21T08:27:49.808Z,24.68
2022-09-21T08:28:49.802Z,24.64
2022-09-21T08:29:49.792Z,24.64
2022-09-21T08:30:49.773Z,24.67
2022-09-21T08:31:49.869Z,24.64
2022-09-21T08:32:52.008Z,24.75
2022-09-21T08:33:49.763Z,24.77
2022-09-21T08:34:49.729Z,24.77
2022-09-21T08:35:49.717Z,24.79
2022-09-21T08:36:55.051Z,24.75
2022-09-21T08:37:50.700Z,24.76
2022-09-21T08:38:49.684Z,24.76
2022-09-21T08:39:49.672Z,24.79
2022-09-21T08:40:49.661Z,24.83
2022-09-21T08:41:49.650Z,24.82
2022-09-21T08:42:50.928Z,24.90
2022-09-21T08:43:49.635Z,24.83
2022-09-21T08:44:49.618Z,24.85
2022-09-21T08:45:49.607Z,24.91
2022-09-21T08:46:49.690Z,24.80
2022-09-21T08:47:49.605Z,24.94
2022-09-21T08:48:49.572Z,24.98
2022-09-21T08:49:49.567Z,24.91
2022-09-21T08:50:49.551Z,24.94
2022-09-21T08:51:49.546Z,25.05
2022-09-21T08:52:49.529Z,24.98
2022-09-21T08:53:49.518Z,24.97
2022-09-21T08:54:49.507Z,24.95
2022-09-21T08:55:49.502Z,25.05
2022-09-21T08:57:04.461Z,25.09
2022-09-21T08:57:50.472Z,25.10
2022-09-21T08:58:49.461Z,25.05
2022-09-21T08:59:49.452Z,25.09
2022-09-21T09:00:49.467Z,25.07
2022-09-21T09:01:49.529Z,25.10
2022-09-21T09:02:49.417Z,25.10
2022-09-21T09:03:49.425Z,25.09
2022-09-21T09:04:49.397Z,25.17
2022-09-21T09:05:49.390Z,25.12
2022-09-21T09:06:49.372Z,25.20
2022-09-21T09:07:49.385Z,25.22
2022-09-21T09:08:49.352Z,25.20
2022-09-21T09:09:49.340Z,25.19
2022-09-21T09:10:49.332Z,25.16
2022-09-21T09:11:49.319Z,25.20
2022-09-21T09:12:49.307Z,25.30
2022-09-21T09:13:49.303Z,25.27
2022-09-21T09:14:49.284Z,25.25
2022-09-21T09:15:49.338Z,25.34
2022-09-21T09:16:49.264Z,25.35
2022-09-21T09:17:49.252Z,25.44
2022-09-21T09:18:49.242Z,25.42
2022-09-21T09:19:49.255Z,25.49
2022-09-21T09:20:49.219Z,25.47
2022-09-21T09:21:49.209Z,25.46
2022-09-21T09:22:49.200Z,25.44
2022-09-21T09:23:49.209Z,25.43
2022-09-21T09:24:49.175Z,25.56
2022-09-21T09:25:49.170Z,25.57
2022-09-21T09:26:49.152Z,25.57
2022-09-21T09:27:49.141Z,25.64
2022-09-21T09:28:53.085Z,25.68
2022-09-21T09:29:49.400Z,25.61
2022-09-21T09:30:49.109Z,25.65
2022-09-21T09:31:49.183Z,25.68
2022-09-21T09:32:49.087Z,25.68
2022-09-21T09:33:49.075Z,25.69
2022-09-21T09:34:49.064Z,25.75
2022-09-21T09:35:49.072Z,25.71
2022-09-21T09:37:00.269Z,25.79
2022-09-21T09:37:50.036Z,25.77
2022-09-21T09:38:49.019Z,25.75
2022-09-21T09:39:49.009Z,25.79
2022-09-21T09:40:49.090Z,25.87
2022-09-21T09:41:48.986Z,25.86
2022-09-21T09:42:48.975Z,25.93
2022-09-21T09:43:48.971Z,25.93
2022-09-21T09:44:48.957Z,25.91
2022-09-21T09:45:48.945Z,26.01
2022-09-21T09:46:48.945Z,26.08
2022-09-21T09:47:48.921Z,26.18
2022-09-21T09:48:53.911Z,26.11
2022-09-21T09:49:49.904Z,26.21
2022-09-21T09:50:48.889Z,26.20
2022-09-21T09:51:48.897Z,26.28
2022-09-21T09:52:48.867Z,26.35
2022-09-21T09:53:48.855Z,26.43
2022-09-21T09:54:48.843Z,26.43
2022-09-21T09:55:48.839Z,26.47
2022-09-21T09:56:48.820Z,26.49
2022-09-21T09:57:48.810Z,26.59
2022-09-21T09:58:48.807Z,26.81
2022-09-21T09:59:54.070Z,26.87
2022-09-21T10:00:49.792Z,26.86
2022-09-21T10:01:48.846Z,26.81
2022-09-21T10:02:48.755Z,27.01
2022-09-21T10:03:48.744Z,27.11
2022-09-21T10:04:48.796Z,27.29
2022-09-21T10:05:48.722Z,27.29
2022-09-21T10:06:48.716Z,27.28
2022-09-21T10:07:48.722Z,27.50
2022-09-21T10:08:48.689Z,27.86
2022-09-21T10:09:48.678Z,28.23
2022-09-21T10:10:48.667Z,28.59
2022-09-21T10:11:48.655Z,28.59
2022-09-21T10:12:48.666Z,29.01
2022-09-21T10:13:48.634Z,29.19
2022-09-21T10:14:48.622Z,29.44
2022-09-21T10:15:48.685Z,29.40
2022-09-21T10:16:48.600Z,29.70
2022-09-21T10:17:48.589Z,29.75
2022-09-21T10:18:48.603Z,29.52
2022-09-21T10:19:48.567Z,29.19
2022-09-21T10:20:48.558Z,29.40
2022-09-21T10:21:52.015Z,29.70
2022-09-21T10:22:48.534Z,29.92
2022-09-21T10:23:48.545Z,30.05
2022-09-21T10:24:48.517Z,30.16
2022-09-21T10:25:48.501Z,30.36
2022-09-21T10:26:48.490Z,30.38
2022-09-21T10:27:48.480Z,30.40
2022-09-21T10:28:48.468Z,29.99
2022-09-21T10:29:48.457Z,29.82
2022-09-21T10:30:48.493Z,30.00
2022-09-21T10:31:48.434Z,30.12
2022-09-21T10:32:48.424Z,30.19
2022-09-21T10:33:48.414Z,30.19
2022-09-21T10:34:48.401Z,30.09
2022-09-21T10:35:48.390Z,29.60
2022-09-21T10:36:48.384Z,29.66
2022-09-21T10:37:48.372Z,29.33
2022-09-21T10:38:48.357Z,28.96
2022-09-21T10:39:48.364Z,28.80
2022-09-21T10:40:48.434Z,28.53
2022-09-21T10:41:48.326Z,28.60
2022-09-21T10:42:48.320Z,28.95
2022-09-21T10:43:48.302Z,29.16
2022-09-21T10:44:48.295Z,29.40
2022-09-21T10:45:48.280Z,29.38
2022-09-21T10:46:48.424Z,29.52
2022-09-21T10:47:48.259Z,29.34
2022-09-21T10:48:48.254Z,28.97
2022-09-21T10:49:48.242Z,29.23
2022-09-21T10:50:48.227Z,29.20
2022-09-21T10:51:48.215Z,29.00
2022-09-21T10:52:48.206Z,28.85
2022-09-21T10:53:51.109Z,28.62
2022-09-21T10:54:49.188Z,28.85
2022-09-21T10:56:04.787Z,28.81
2022-09-21T10:56:49.160Z,28.73
2022-09-21T10:57:48.151Z,28.73
2022-09-21T10:58:48.140Z,28.43
2022-09-21T10:59:48.130Z,28.60
2022-09-21T11:00:48.156Z,28.44
2022-09-21T11:01:48.132Z,28.60
2022-09-21T11:02:48.149Z,28.69
2022-09-21T11:03:48.087Z,28.58
2022-09-21T11:04:48.077Z,28.66
2022-09-21T11:05:48.063Z,28.82
2022-09-21T11:06:48.060Z,28.87
2022-09-21T11:07:48.042Z,28.90
2022-09-21T11:08:48.035Z,28.87
2022-09-21T11:09:48.021Z,28.69
2022-09-21T11:10:48.010Z,28.72
2022-09-21T11:11:48.019Z,28.77
2022-09-21T11:12:48.010Z,28.88
2022-09-21T11:13:47.980Z,28.90
2022-09-21T11:14:47.967Z,28.97
2022-09-21T11:15:48.000Z,28.93
2022-09-21T11:16:47.949Z,29.03
2022-09-21T11:17:47.935Z,29.10
2022-09-21T11:18:47.947Z,29.07
2022-09-21T11:19:47.935Z,29.11
2022-09-21T11:20:47.905Z,29.11
2022-09-21T11:21:47.893Z,29.15
2022-09-21T11:22:47.883Z,29.15
2022-09-21T11:23:47.872Z,29.13
2022-09-21T11:24:47.882Z,29.26
2022-09-21T11:25:47.854Z,29.03
2022-09-21T11:26:47.843Z,29.03
2022-09-21T11:27:47.851Z,28.81
2022-09-21T11:28:47.821Z,28.68
2022-09-21T11:29:47.822Z,28.65
2022-09-21T11:30:48.860Z,28.84
2022-09-21T11:31:47.788Z,28.95
2022-09-21T11:32:47.779Z,28.95
2022-09-21T11:33:47.768Z,29.11
2022-09-21T11:34:47.756Z,29.11
2022-09-21T11:35:47.746Z,29.10
2022-09-21T11:36:47.742Z,29.15
2022-09-21T11:37:47.726Z,29.23
2022-09-21T11:38:47.715Z,29.22
2022-09-21T11:39:47.704Z,29.16
2022-09-21T11:40:47.693Z,29.23
2022-09-21T11:41:47.683Z,29.20
2022-09-21T11:42:47.694Z,29.16
2022-09-21T11:43:47.684Z,29.22
2022-09-21T11:44:47.652Z,29.28
2022-09-21T11:45:50.473Z,29.28
2022-09-21T11:46:47.631Z,29.22
2022-09-21T11:47:47.620Z,29.22
2022-09-21T11:48:47.618Z,29.29
2022-09-21T11:49:47.599Z,29.33
2022-09-21T11:50:47.642Z,29.40
2022-09-21T11:51:47.579Z,29.43
2022-09-21T11:52:47.569Z,29.44
2022-09-21T11:53:47.557Z,29.47
2022-09-21T11:54:47.556Z,29.37
2022-09-21T11:55:47.537Z,29.13
2022-09-21T11:56:47.525Z,29.03
2022-09-21T11:57:51.481Z,28.97
2022-09-21T11:58:49.758Z,28.91
2022-09-21T11:59:47.516Z,29.10
2022-09-21T12:00:47.506Z,28.91
2022-09-21T12:01:47.474Z,28.81
2022-09-21T12:02:47.618Z,28.70
2022-09-21T12:03:47.453Z,28.60
2022-09-21T12:04:47.443Z,28.62
2022-09-21T12:05:47.431Z,28.51
2022-09-21T12:06:47.425Z,28.56
2022-09-21T12:07:47.410Z,28.41
2022-09-21T12:08:47.398Z,28.38
2022-09-21T12:09:47.391Z,28.25
2022-09-21T12:10:47.382Z,28.21
2022-09-21T12:11:47.374Z,28.13
2022-09-21T12:12:47.386Z,28.11
2022-09-21T12:13:47.345Z,27.99
2022-09-21T12:14:47.337Z,28.06
2022-09-21T12:15:47.379Z,27.99
2022-09-21T12:16:47.366Z,27.96
2022-09-21T12:17:47.304Z,27.82
2022-09-21T12:18:47.308Z,27.89
2022-09-21T12:19:47.282Z,27.84
2022-09-21T12:20:47.272Z,27.80
2022-09-21T12:21:47.261Z,27.76
2022-09-21T12:22:47.250Z,27.71
2022-09-21T12:23:47.239Z,27.69
2022-09-21T12:24:47.237Z,27.94
2022-09-21T12:25:47.216Z,27.89
2022-09-21T12:26:47.206Z,27.85
2022-09-21T12:27:47.194Z,28.51
2022-09-21T12:28:47.185Z,28.93
2022-09-21T12:29:47.177Z,29.22
2022-09-21T12:30:47.222Z,29.40
2022-09-21T12:31:47.172Z,29.60
2022-09-21T12:32:47.142Z,29.81
2022-09-21T12:33:47.130Z,29.93
2022-09-21T12:34:47.120Z,30.19
2022-09-21T12:35:47.123Z,30.43
2022-09-21T12:36:47.104Z,30.64
2022-09-21T12:37:47.088Z,30.67
2022-09-21T12:38:47.087Z,30.75
2022-09-21T12:39:47.065Z,30.94
2022-09-21T12:40:47.101Z,31.13
2022-09-21T12:41:47.043Z,31.17
2022-09-21T12:42:47.039Z,31.33
2022-09-21T12:43:47.023Z,31.40
2022-09-21T12:44:47.011Z,31.46
2022-09-21T12:45:47.061Z,31.61
2022-09-21T12:46:47.193Z,31.70
2022-09-21T12:47:47.003Z,31.77
2022-09-21T12:48:46.994Z,31.84
2022-09-21T12:49:46.958Z,31.96
2022-09-21T12:50:46.949Z,31.99
2022-09-21T12:51:46.936Z,32.13
2022-09-21T12:52:46.926Z,32.13
2022-09-21T12:53:50.620Z,32.18